Subpeak Weather

  • Time Avg. Air Temp Dew Point Avg. Rel Humidity Avg. 2 Min Wind Speed Max Gust Velocity MGV Time MGV Direction Avg. Spot Wind Velocity
    2020-01-23 21:25:00-4° C-5° C95%25 km/h36 km/h21:24:00SE26 km/h
    20:25:00-4° C-5° C95%31 km/h44 km/h20:22:00S35 km/h
    19:25:00-4° C-5° C95%31 km/h40 km/h19:21:00S29 km/h
    18:25:00-4° C-5° C95%35 km/h44 km/h18:25:00S37 km/h
    17:25:00-5° C-5° C94%23 km/h29 km/h17:22:00S24 km/h
    16:25:00-5° C-5° C94%23 km/h30 km/h16:21:00S25 km/h
    15:25:00-4° C-5° C95%24 km/h32 km/h15:21:00S27 km/h
    14:25:00-5° C-5° C94%31 km/h37 km/h14:21:00S32 km/h
    13:25:00-5° C-6° C94%21 km/h26 km/h13:21:00S22 km/h
    12:25:00-5° C-5° C94%34 km/h36 km/h12:24:00S33 km/h
    11:20:00-5° C-6° C94%35 km/h39 km/h11:16:00S36 km/h
    10:05:00-6° C-6° C93%25 km/h30 km/h10:01:00S26 km/h
    09:25:00-6° C-7° C93%28 km/h38 km/h09:23:00S31 km/h
    08:25:00-6° C-7° C93%26 km/h27 km/h08:24:00S25 km/h
    07:25:00-7° C-8° C92%27 km/h32 km/h07:22:00S27 km/h
    06:25:00-7° C-8° C92%26 km/h30 km/h06:24:00S21 km/h
    05:25:00-7° C-8° C91%26 km/h30 km/h05:24:00S23 km/h
    04:25:00-8° C-9° C91%23 km/h32 km/h04:22:00SE25 km/h
    03:25:00-8° C-9° C91%14 km/h16 km/h03:21:00S13 km/h
    02:25:00-8° C-9° C91%12 km/h15 km/h02:25:00S11 km/h
    01:25:00-8° C-9° C91%13 km/h18 km/h01:22:00S13 km/h
    00:25:00-8° C-9° C91%17 km/h19 km/h00:22:00S16 km/h
    23:25:00-8° C-9° C91%14 km/h17 km/h23:23:00SE14 km/h
    22:25:00-8° C-10° C90%13 km/h19 km/h22:22:00SE15 km/h
  • Time Avg. Air Temp Dew Point Avg. Rel Humidity Avg. 2 Min Wind Speed Max Gust Velocity MGV Time MGV Direction Avg. Spot Wind Velocity
    2020-01-23 21:25:00-4° C-5° C95%25 km/h36 km/h21:24:00SE26 km/h
    21:20:00-4° C-5° C95%29 km/h35 km/h21:16:00S25 km/h
    21:15:00-4° C-5° C95%30 km/h38 km/h21:14:00SE28 km/h
    21:10:00-4° C-5° C95%30 km/h38 km/h21:10:00S31 km/h
    21:05:00-4° C-5° C95%28 km/h36 km/h21:02:00S27 km/h
    21:00:00-4° C-5° C95%27 km/h38 km/h20:56:00SE28 km/h
    20:55:00-4° C-5° C95%29 km/h42 km/h20:51:00S28 km/h
    20:50:00-4° C-5° C95%32 km/h45 km/h20:48:00S32 km/h
    20:45:00-4° C-5° C95%33 km/h41 km/h20:45:00S32 km/h
    20:40:00-4° C-5° C95%30 km/h41 km/h20:37:00SE30 km/h
    20:35:00-4° C-5° C95%32 km/h38 km/h20:31:00S35 km/h
    20:30:00-4° C-5° C95%30 km/h43 km/h20:29:00S33 km/h
    20:25:00-4° C-5° C95%31 km/h44 km/h20:22:00S35 km/h

Explore More

Get Revelstoke news, offers, and events via email.